createdAt,value
2022-11-09T00:01:01.970Z,10.40
2022-11-09T00:06:03.646Z,11.60
2022-11-09T00:11:10.647Z,10.40
2022-11-09T00:16:14.444Z,10.40
2022-11-09T00:21:19.295Z,10.60
2022-11-09T00:26:21.402Z,10.50
2022-11-09T00:31:24.487Z,13.80
2022-11-09T00:36:27.534Z,10.60
2022-11-09T00:41:29.479Z,10.50
2022-11-09T00:46:31.221Z,10.50
2022-11-09T00:51:33.165Z,12.80
2022-11-09T00:56:34.855Z,11.00
2022-11-09T01:01:36.697Z,10.60
2022-11-09T01:06:38.388Z,11.10
2022-11-09T01:11:40.155Z,12.50
2022-11-09T01:16:41.882Z,10.50
2022-11-09T01:21:43.592Z,10.40
2022-11-09T01:31:48.552Z,10.60
2022-11-09T01:36:51.720Z,10.50
2022-11-09T01:41:53.452Z,10.50
2022-11-09T01:47:02.639Z,12.90
2022-11-09T01:52:17.480Z,10.60
2022-11-09T01:57:32.762Z,11.50
2022-11-09T02:02:36.404Z,10.80
2022-11-09T02:07:40.231Z,12.80
2022-11-09T02:17:44.604Z,10.80
2022-11-09T02:22:46.520Z,10.90
2022-11-09T02:27:49.654Z,13.60
2022-11-09T02:42:56.877Z,10.80
2022-11-09T02:47:58.598Z,10.90
2022-11-09T02:53:00.303Z,11.70
2022-11-09T03:03:04.639Z,10.80
2022-11-09T03:08:06.280Z,11.40
2022-11-09T03:13:07.962Z,11.30
2022-11-09T03:18:09.609Z,13.30
2022-11-09T03:23:11.507Z,10.90
2022-11-09T03:28:13.135Z,13.60
2022-11-09T03:33:14.807Z,10.70
2022-11-09T03:38:16.615Z,10.80
2022-11-09T03:43:19.093Z,10.80
2022-11-09T03:48:20.881Z,11.10
2022-11-09T03:53:22.838Z,10.90
2022-11-09T03:58:24.939Z,10.80
2022-11-09T04:03:26.644Z,10.80
2022-11-09T04:08:28.387Z,12.10
2022-11-09T04:13:30.028Z,12.40
2022-11-09T04:18:31.649Z,12.80
2022-11-09T04:23:33.385Z,10.90
2022-11-09T04:33:37.258Z,11.00
2022-11-09T04:38:38.958Z,12.10
2022-11-09T04:53:46.179Z,11.10
2022-11-09T05:03:51.057Z,10.90
2022-11-09T05:08:54.316Z,13.70
2022-11-09T05:13:56.233Z,11.00
2022-11-09T05:18:57.930Z,12.10
2022-11-09T05:29:04.456Z,11.00
2022-11-09T05:34:12.091Z,11.00
2022-11-09T05:39:14.202Z,11.00
2022-11-09T05:44:15.879Z,11.00
2022-11-09T05:54:19.827Z,11.10
2022-11-09T05:59:21.463Z,11.10
2022-11-09T06:04:23.300Z,11.10
2022-11-09T06:14:27.069Z,11.20
2022-11-09T06:19:29.643Z,11.30
2022-11-09T06:24:31.347Z,12.10
2022-11-09T06:29:33.437Z,11.40
2022-11-09T06:39:37.163Z,11.50
2022-11-09T06:44:38.973Z,11.50
2022-11-09T06:49:40.638Z,11.50
2022-11-09T06:54:42.298Z,11.40
2022-11-09T06:59:44.590Z,11.40
2022-11-09T07:09:48.406Z,11.60
2022-11-09T07:19:52.257Z,11.70
2022-11-09T07:24:55.632Z,10.30
2022-11-09T07:29:57.436Z,11.40
2022-11-09T07:34:59.103Z,13.40
2022-11-09T07:40:00.762Z,11.50
2022-11-09T07:45:02.452Z,12.00
2022-11-09T07:50:04.630Z,11.70
2022-11-09T07:55:06.759Z,11.70
2022-11-09T08:00:09.367Z,11.70
2022-11-09T08:05:11.031Z,11.90
2022-11-09T08:10:13.501Z,13.00
2022-11-09T08:15:15.205Z,12.10
2022-11-09T08:20:18.272Z,12.50
2022-11-09T08:25:19.975Z,12.40
2022-11-09T08:30:21.753Z,12.50
2022-11-09T08:35:24.697Z,12.60
2022-11-09T08:40:26.544Z,12.70
2022-11-09T08:45:28.308Z,12.60
2022-11-09T08:50:31.113Z,12.80
2022-11-09T08:55:32.801Z,15.00
2022-11-09T09:00:34.508Z,13.70
2022-11-09T09:05:36.801Z,13.00
2022-11-09T09:10:38.735Z,13.10
2022-11-09T09:15:40.405Z,13.90
2022-11-09T09:20:42.748Z,13.50
2022-11-09T09:25:44.436Z,13.80
2022-11-09T09:30:46.262Z,13.70
2022-11-09T09:35:47.908Z,13.80
2022-11-09T09:40:59.906Z,14.00
2022-11-09T09:46:04.124Z,14.20
2022-11-09T09:51:40.911Z,16.30
2022-11-09T09:56:45.400Z,13.90
2022-11-09T10:01:48.857Z,14.00
2022-11-09T10:07:12.526Z,14.30
2022-11-09T10:12:20.060Z,14.60
2022-11-09T10:17:39.194Z,15.10
2022-11-09T10:22:59.546Z,15.70
2022-11-09T10:28:12.844Z,15.60
2022-11-09T10:33:19.348Z,15.80
2022-11-09T10:38:34.179Z,15.70
2022-11-09T10:43:35.935Z,15.90
2022-11-09T10:48:40.169Z,17.10
2022-11-09T10:53:42.033Z,18.30
2022-11-09T10:58:52.581Z,18.50
2022-11-09T11:03:55.986Z,17.60
2022-11-09T11:09:06.615Z,18.90
2022-11-09T11:14:22.814Z,21.40
2022-11-09T11:19:41.203Z,22.70
2022-11-09T11:24:56.425Z,21.60
2022-11-09T11:30:19.909Z,20.40
2022-11-09T11:35:39.905Z,20.20
2022-11-09T11:41:08.923Z,21.30
2022-11-09T11:46:39.186Z,21.30
2022-11-09T11:52:03.161Z,20.90
2022-11-09T11:57:25.938Z,21.20
2022-11-09T12:02:50.590Z,22.20
2022-11-09T12:08:01.651Z,21.60
2022-11-09T12:13:28.536Z,20.10
2022-11-09T12:18:41.566Z,18.30
2022-11-09T12:24:23.644Z,17.70
2022-11-09T12:29:45.555Z,17.00
2022-11-09T12:34:57.742Z,16.70
2022-11-09T12:40:13.413Z,16.70
2022-11-09T12:45:21.022Z,16.30
2022-11-09T12:50:25.653Z,16.30
2022-11-09T12:55:50.201Z,16.50
2022-11-09T13:00:57.651Z,16.80
2022-11-09T13:06:17.593Z,16.90
2022-11-09T13:11:28.309Z,16.90
2022-11-09T13:16:35.393Z,20.10
2022-11-09T13:21:38.671Z,18.60
2022-11-09T13:26:46.517Z,17.70
2022-11-09T13:32:12.960Z,17.10
2022-11-09T13:37:37.597Z,17.00
2022-11-09T13:42:39.459Z,16.40
2022-11-09T13:47:50.462Z,16.40
2022-11-09T13:52:54.788Z,16.30
2022-11-09T13:58:01.686Z,16.00
2022-11-09T14:03:25.727Z,15.90
2022-11-09T14:08:40.292Z,15.90
2022-11-09T14:14:10.977Z,15.70
2022-11-09T14:19:31.905Z,15.60
2022-11-09T14:24:37.690Z,15.60
2022-11-09T14:29:52.798Z,16.00
2022-11-09T14:35:18.686Z,15.50
2022-11-09T14:40:26.931Z,15.50
2022-11-09T14:45:29.385Z,15.40
2022-11-09T14:50:36.826Z,15.30
2022-11-09T14:55:42.343Z,15.10
2022-11-09T15:00:46.129Z,17.80
2022-11-09T15:05:48.782Z,15.20
2022-11-09T15:10:52.892Z,15.00
2022-11-09T15:15:55.537Z,14.80
2022-11-09T15:21:17.551Z,14.70
2022-11-09T15:26:39.249Z,14.70
2022-11-09T15:31:57.781Z,14.80
2022-11-09T15:36:59.492Z,14.70
2022-11-09T15:47:03.378Z,14.50
2022-11-09T15:52:05.194Z,14.50
2022-11-09T15:57:06.999Z,14.80
2022-11-09T16:02:11.770Z,14.40
2022-11-09T16:07:16.033Z,14.20
2022-11-09T16:12:17.733Z,14.20
2022-11-09T16:17:19.467Z,14.70
2022-11-09T16:22:21.134Z,14.40
2022-11-09T16:27:48.544Z,14.40
2022-11-09T16:32:44.616Z,14.20
2022-11-09T16:37:47.505Z,14.20
2022-11-09T16:42:51.163Z,14.00
2022-11-09T16:47:56.854Z,14.10
2022-11-09T16:52:58.610Z,14.00
2022-11-09T16:58:00.278Z,14.10
2022-11-09T17:03:03.847Z,14.00
2022-11-09T17:13:09.476Z,14.00
2022-11-09T17:18:11.685Z,13.90
2022-11-09T17:23:15.390Z,13.80
2022-11-09T17:28:17.132Z,14.30
2022-11-09T17:33:19.035Z,14.90
2022-11-09T17:48:25.623Z,13.90
2022-11-09T17:58:30.324Z,13.80
2022-11-09T18:03:33.711Z,14.70
2022-11-09T18:08:36.539Z,16.20
2022-11-09T18:13:38.929Z,13.80
2022-11-09T18:23:44.094Z,13.70
2022-11-09T18:28:45.829Z,13.70
2022-11-09T18:33:47.559Z,14.90
2022-11-09T18:38:51.943Z,13.70
2022-11-09T18:43:54.073Z,14.00
2022-11-09T18:48:55.749Z,13.60
2022-11-09T18:53:57.447Z,13.50
2022-11-09T18:58:59.937Z,13.40
2022-11-09T19:04:01.891Z,13.40
2022-11-09T19:09:22.313Z,13.50
2022-11-09T19:14:24.675Z,13.20
2022-11-09T19:19:27.162Z,13.40
2022-11-09T19:24:30.211Z,13.90
2022-11-09T19:29:31.862Z,13.40
2022-11-09T19:34:33.546Z,13.30
2022-11-09T19:39:38.064Z,15.60
2022-11-09T19:44:42.150Z,13.20
2022-11-09T19:54:45.986Z,13.40
2022-11-09T19:59:47.685Z,14.50
2022-11-09T20:04:50.724Z,13.60
2022-11-09T20:09:52.379Z,14.40
2022-11-09T20:14:54.032Z,13.40
2022-11-09T20:19:55.742Z,13.50
2022-11-09T20:24:57.588Z,13.50
2022-11-09T20:29:59.252Z,13.50
2022-11-09T20:35:01.745Z,14.70
2022-11-09T20:40:07.923Z,13.40
2022-11-09T20:45:10.138Z,13.40
2022-11-09T20:50:12.923Z,13.50
2022-11-09T20:55:15.045Z,13.40
2022-11-09T21:00:21.667Z,13.10
2022-11-09T21:05:25.828Z,13.10
2022-11-09T21:10:27.565Z,13.10
2022-11-09T21:15:30.104Z,13.00
2022-11-09T21:20:31.781Z,13.70
2022-11-09T21:25:51.977Z,13.10
2022-11-09T21:30:53.638Z,13.00
2022-11-09T21:35:55.763Z,13.50
2022-11-09T21:41:05.425Z,13.10
2022-11-09T21:46:09.455Z,13.10
2022-11-09T21:51:11.111Z,15.50
2022-11-09T22:01:16.387Z,13.00
2022-11-09T22:06:18.577Z,13.00
2022-11-09T22:11:43.039Z,13.10
2022-11-09T22:16:44.726Z,12.90
2022-11-09T22:26:48.595Z,12.70
2022-11-09T22:31:50.253Z,13.30
2022-11-09T22:36:51.956Z,15.00
2022-11-09T22:41:53.658Z,12.80
2022-11-09T22:46:55.315Z,13.80
2022-11-09T22:51:57.040Z,13.20
2022-11-09T22:56:58.711Z,12.90
2022-11-09T23:02:00.429Z,14.60
2022-11-09T23:07:02.313Z,12.80
2022-11-09T23:12:04.217Z,12.70
2022-11-09T23:17:25.874Z,12.70
2022-11-09T23:22:27.528Z,12.80
2022-11-09T23:32:31.262Z,12.80
2022-11-09T23:37:32.930Z,12.80
2022-11-09T23:42:34.683Z,12.80
2022-11-09T23:47:36.498Z,12.50
2022-11-09T23:52:38.253Z,12.80
2022-11-09T23:57:40.015Z,12.70
